sensor_id;sensor_type;location;lat;lon;timestamp;P1;durP1;ratioP1;P2;durP2;ratioP2
13122;SDS011;6627;50.920;12.050;2023-04-25T00:00:03;5.43;;;4.57;;
13122;SDS011;6627;50.920;12.050;2023-04-25T00:02:33;5.47;;;4.30;;
13122;SDS011;6627;50.920;12.050;2023-04-25T00:05:00;5.97;;;4.33;;
13122;SDS011;6627;50.920;12.050;2023-04-25T00:07:27;5.07;;;4.57;;
13122;SDS011;6627;50.920;12.050;2023-04-25T00:09:55;7.67;;;4.70;;
13122;SDS011;6627;50.920;12.050;2023-04-25T00:12:22;7.03;;;4.60;;
13122;SDS011;6627;50.920;12.050;2023-04-25T00:14:51;5.80;;;4.83;;
13122;SDS011;6627;50.920;12.050;2023-04-25T00:17:19;6.53;;;4.77;;
13122;SDS011;6627;50.920;12.050;2023-04-25T00:19:47;7.10;;;4.73;;
13122;SDS011;6627;50.920;12.050;2023-04-25T00:22:15;6.17;;;4.90;;
13122;SDS011;6627;50.920;12.050;2023-04-25T00:24:43;9.13;;;4.77;;
13122;SDS011;6627;50.920;12.050;2023-04-25T00:27:12;6.93;;;4.53;;
13122;SDS011;6627;50.920;12.050;2023-04-25T00:29:39;7.63;;;5.00;;
13122;SDS011;6627;50.920;12.050;2023-04-25T00:32:07;7.07;;;4.87;;
13122;SDS011;6627;50.920;12.050;2023-04-25T00:34:36;7.07;;;4.97;;
13122;SDS011;6627;50.920;12.050;2023-04-25T00:37:03;5.90;;;4.63;;
13122;SDS011;6627;50.920;12.050;2023-04-25T00:39:31;8.87;;;4.73;;
13122;SDS011;6627;50.920;12.050;2023-04-25T00:41:58;5.43;;;4.83;;
13122;SDS011;6627;50.920;12.050;2023-04-25T00:44:28;5.23;;;4.70;;
13122;SDS011;6627;50.920;12.050;2023-04-25T00:46:58;6.37;;;4.53;;
13122;SDS011;6627;50.920;12.050;2023-04-25T00:49:29;6.17;;;4.60;;
13122;SDS011;6627;50.920;12.050;2023-04-25T00:51:56;5.40;;;4.30;;
13122;SDS011;6627;50.920;12.050;2023-04-25T00:54:23;7.77;;;4.83;;
13122;SDS011;6627;50.920;12.050;2023-04-25T00:56:52;6.43;;;5.10;;
13122;SDS011;6627;50.920;12.050;2023-04-25T00:59:19;9.07;;;5.43;;
13122;SDS011;6627;50.920;12.050;2023-04-25T01:01:49;6.70;;;4.60;;
13122;SDS011;6627;50.920;12.050;2023-04-25T01:04:16;6.77;;;5.00;;
13122;SDS011;6627;50.920;12.050;2023-04-25T01:06:46;7.47;;;4.87;;
13122;SDS011;6627;50.920;12.050;2023-04-25T01:09:14;6.57;;;4.87;;
13122;SDS011;6627;50.920;12.050;2023-04-25T01:11:42;10.93;;;5.20;;
13122;SDS011;6627;50.920;12.050;2023-04-25T01:14:09;9.23;;;5.50;;
13122;SDS011;6627;50.920;12.050;2023-04-25T01:16:37;6.97;;;5.30;;
13122;SDS011;6627;50.920;12.050;2023-04-25T01:19:05;5.70;;;5.10;;
13122;SDS011;6627;50.920;12.050;2023-04-25T01:21:38;6.80;;;5.47;;
13122;SDS011;6627;50.920;12.050;2023-04-25T01:24:06;7.73;;;6.10;;
13122;SDS011;6627;50.920;12.050;2023-04-25T01:26:47;8.97;;;5.40;;
13122;SDS011;6627;50.920;12.050;2023-04-25T01:29:16;7.13;;;5.63;;
13122;SDS011;6627;50.920;12.050;2023-04-25T01:31:44;7.77;;;5.83;;
13122;SDS011;6627;50.920;12.050;2023-04-25T01:34:12;6.20;;;5.60;;
13122;SDS011;6627;50.920;12.050;2023-04-25T01:36:43;9.10;;;6.00;;
13122;SDS011;6627;50.920;12.050;2023-04-25T01:39:11;7.80;;;5.60;;
13122;SDS011;6627;50.920;12.050;2023-04-25T01:41:38;7.67;;;5.50;;
13122;SDS011;6627;50.920;12.050;2023-04-25T01:44:05;8.77;;;5.63;;
13122;SDS011;6627;50.920;12.050;2023-04-25T01:46:33;12.63;;;5.80;;
13122;SDS011;6627;50.920;12.050;2023-04-25T01:49:01;6.77;;;5.30;;
13122;SDS011;6627;50.920;12.050;2023-04-25T01:51:29;8.23;;;5.87;;
13122;SDS011;6627;50.920;12.050;2023-04-25T01:53:58;5.80;;;5.03;;
13122;SDS011;6627;50.920;12.050;2023-04-25T01:56:29;6.77;;;5.30;;
13122;SDS011;6627;50.920;12.050;2023-04-25T01:58:57;6.93;;;5.47;;
13122;SDS011;6627;50.920;12.050;2023-04-25T02:01:24;9.87;;;5.80;;
13122;SDS011;6627;50.920;12.050;2023-04-25T02:03:51;8.20;;;4.83;;
13122;SDS011;6627;50.920;12.050;2023-04-25T02:06:19;11.13;;;6.10;;
13122;SDS011;6627;50.920;12.050;2023-04-25T02:08:46;8.20;;;6.50;;
13122;SDS011;6627;50.920;12.050;2023-04-25T02:11:14;6.70;;;5.87;;
13122;SDS011;6627;50.920;12.050;2023-04-25T02:13:41;8.10;;;5.93;;
13122;SDS011;6627;50.920;12.050;2023-04-25T02:16:08;9.77;;;6.63;;
13122;SDS011;6627;50.920;12.050;2023-04-25T02:18:35;7.07;;;6.37;;
13122;SDS011;6627;50.920;12.050;2023-04-25T02:21:03;9.43;;;6.97;;
13122;SDS011;6627;50.920;12.050;2023-04-25T02:23:30;13.00;;;6.53;;
13122;SDS011;6627;50.920;12.050;2023-04-25T02:25:57;9.43;;;7.23;;
13122;SDS011;6627;50.920;12.050;2023-04-25T02:28:26;9.63;;;7.23;;
13122;SDS011;6627;50.920;12.050;2023-04-25T02:30:53;9.57;;;7.27;;
13122;SDS011;6627;50.920;12.050;2023-04-25T02:33:21;11.77;;;7.00;;
13122;SDS011;6627;50.920;12.050;2023-04-25T02:35:48;13.60;;;6.73;;
13122;SDS011;6627;50.920;12.050;2023-04-25T02:38:16;15.57;;;7.50;;
13122;SDS011;6627;50.920;12.050;2023-04-25T02:40:44;17.03;;;8.17;;
13122;SDS011;6627;50.920;12.050;2023-04-25T02:43:12;14.30;;;7.47;;
13122;SDS011;6627;50.920;12.050;2023-04-25T02:45:40;12.70;;;7.37;;
13122;SDS011;6627;50.920;12.050;2023-04-25T02:48:07;18.17;;;7.17;;
13122;SDS011;6627;50.920;12.050;2023-04-25T02:50:34;9.43;;;6.50;;
13122;SDS011;6627;50.920;12.050;2023-04-25T02:53:02;10.33;;;6.60;;
13122;SDS011;6627;50.920;12.050;2023-04-25T02:55:29;11.90;;;6.90;;
13122;SDS011;6627;50.920;12.050;2023-04-25T02:57:56;10.03;;;6.20;;
13122;SDS011;6627;50.920;12.050;2023-04-25T03:00:24;11.00;;;7.10;;
13122;SDS011;6627;50.920;12.050;2023-04-25T03:02:52;12.60;;;6.73;;
13122;SDS011;6627;50.920;12.050;2023-04-25T03:05:21;14.90;;;7.50;;
13122;SDS011;6627;50.920;12.050;2023-04-25T03:07:48;12.17;;;6.90;;
13122;SDS011;6627;50.920;12.050;2023-04-25T03:10:15;13.63;;;7.57;;
13122;SDS011;6627;50.920;12.050;2023-04-25T03:12:42;11.17;;;7.13;;
13122;SDS011;6627;50.920;12.050;2023-04-25T03:15:10;10.47;;;7.70;;
13122;SDS011;6627;50.920;12.050;2023-04-25T03:17:37;12.43;;;7.90;;
13122;SDS011;6627;50.920;12.050;2023-04-25T03:20:17;9.77;;;7.13;;
13122;SDS011;6627;50.920;12.050;2023-04-25T03:22:44;10.33;;;7.70;;
13122;SDS011;6627;50.920;12.050;2023-04-25T03:25:11;11.73;;;7.70;;
13122;SDS011;6627;50.920;12.050;2023-04-25T03:27:39;9.70;;;6.77;;
13122;SDS011;6627;50.920;12.050;2023-04-25T03:30:06;9.13;;;7.30;;
13122;SDS011;6627;50.920;12.050;2023-04-25T03:32:34;15.10;;;7.63;;
13122;SDS011;6627;50.920;12.050;2023-04-25T03:35:01;9.33;;;7.27;;
13122;SDS011;6627;50.920;12.050;2023-04-25T03:37:30;10.67;;;7.80;;
13122;SDS011;6627;50.920;12.050;2023-04-25T03:39:57;15.90;;;8.70;;
13122;SDS011;6627;50.920;12.050;2023-04-25T03:42:25;10.37;;;7.90;;
13122;SDS011;6627;50.920;12.050;2023-04-25T03:44:52;10.73;;;7.43;;
13122;SDS011;6627;50.920;12.050;2023-04-25T03:47:19;13.20;;;7.90;;
13122;SDS011;6627;50.920;12.050;2023-04-25T03:49:47;10.13;;;7.40;;
13122;SDS011;6627;50.920;12.050;2023-04-25T03:52:17;9.83;;;6.90;;
13122;SDS011;6627;50.920;12.050;2023-04-25T03:54:45;10.03;;;7.60;;
13122;SDS011;6627;50.920;12.050;2023-04-25T03:57:12;10.23;;;7.97;;
13122;SDS011;6627;50.920;12.050;2023-04-25T03:59:40;104.80;;;57.23;;
13122;SDS011;6627;50.920;12.050;2023-04-25T04:02:07;58.60;;;35.13;;
13122;SDS011;6627;50.920;12.050;2023-04-25T04:04:35;36.53;;;23.87;;
13122;SDS011;6627;50.920;12.050;2023-04-25T04:07:02;14.53;;;11.20;;
13122;SDS011;6627;50.920;12.050;2023-04-25T04:09:31;10.70;;;8.57;;
13122;SDS011;6627;50.920;12.050;2023-04-25T04:11:59;9.83;;;7.23;;
13122;SDS011;6627;50.920;12.050;2023-04-25T04:14:28;9.50;;;7.27;;
13122;SDS011;6627;50.920;12.050;2023-04-25T04:16:56;13.10;;;7.33;;
13122;SDS011;6627;50.920;12.050;2023-04-25T04:19:25;13.57;;;7.80;;
13122;SDS011;6627;50.920;12.050;2023-04-25T04:21:52;11.03;;;7.80;;
13122;SDS011;6627;50.920;12.050;2023-04-25T04:24:19;12.60;;;7.83;;
13122;SDS011;6627;50.920;12.050;2023-04-25T04:26:46;10.10;;;7.50;;
13122;SDS011;6627;50.920;12.050;2023-04-25T04:29:16;11.90;;;7.57;;
13122;SDS011;6627;50.920;12.050;2023-04-25T04:31:47;17.37;;;9.33;;
13122;SDS011;6627;50.920;12.050;2023-04-25T04:34:15;15.23;;;9.97;;
13122;SDS011;6627;50.920;12.050;2023-04-25T04:36:43;14.03;;;10.50;;
13122;SDS011;6627;50.920;12.050;2023-04-25T04:39:12;17.47;;;12.57;;
13122;SDS011;6627;50.920;12.050;2023-04-25T04:41:39;13.97;;;12.27;;
13122;SDS011;6627;50.920;12.050;2023-04-25T04:44:06;19.53;;;12.00;;
13122;SDS011;6627;50.920;12.050;2023-04-25T04:46:35;15.43;;;11.70;;
13122;SDS011;6627;50.920;12.050;2023-04-25T04:49:04;17.57;;;11.53;;
13122;SDS011;6627;50.920;12.050;2023-04-25T04:51:32;14.87;;;11.63;;
13122;SDS011;6627;50.920;12.050;2023-04-25T04:53:59;19.60;;;12.23;;
13122;SDS011;6627;50.920;12.050;2023-04-25T04:56:28;18.80;;;11.97;;
13122;SDS011;6627;50.920;12.050;2023-04-25T04:58:56;18.17;;;11.07;;
13122;SDS011;6627;50.920;12.050;2023-04-25T05:01:25;18.90;;;11.63;;
13122;SDS011;6627;50.920;12.050;2023-04-25T05:03:55;17.17;;;10.30;;
13122;SDS011;6627;50.920;12.050;2023-04-25T05:06:25;14.77;;;10.40;;
13122;SDS011;6627;50.920;12.050;2023-04-25T05:08:54;15.70;;;10.50;;
13122;SDS011;6627;50.920;12.050;2023-04-25T05:11:21;13.73;;;10.57;;
13122;SDS011;6627;50.920;12.050;2023-04-25T05:13:49;15.13;;;10.67;;
13122;SDS011;6627;50.920;12.050;2023-04-25T05:16:18;16.57;;;10.03;;
13122;SDS011;6627;50.920;12.050;2023-04-25T05:18:46;11.57;;;8.37;;
13122;SDS011;6627;50.920;12.050;2023-04-25T05:21:15;14.13;;;9.00;;
13122;SDS011;6627;50.920;12.050;2023-04-25T05:23:42;13.10;;;8.87;;
13122;SDS011;6627;50.920;12.050;2023-04-25T05:26:09;10.73;;;7.80;;
13122;SDS011;6627;50.920;12.050;2023-04-25T05:28:39;13.30;;;7.93;;
13122;SDS011;6627;50.920;12.050;2023-04-25T05:31:07;11.17;;;7.63;;
13122;SDS011;6627;50.920;12.050;2023-04-25T05:33:36;14.30;;;7.37;;
13122;SDS011;6627;50.920;12.050;2023-04-25T05:36:04;12.43;;;7.17;;
13122;SDS011;6627;50.920;12.050;2023-04-25T05:38:33;10.17;;;7.23;;
13122;SDS011;6627;50.920;12.050;2023-04-25T05:41:00;13.17;;;6.50;;
13122;SDS011;6627;50.920;12.050;2023-04-25T05:43:28;9.80;;;7.07;;
13122;SDS011;6627;50.920;12.050;2023-04-25T05:45:55;13.27;;;6.47;;
13122;SDS011;6627;50.920;12.050;2023-04-25T05:48:22;18.17;;;7.70;;
13122;SDS011;6627;50.920;12.050;2023-04-25T05:50:49;10.80;;;6.70;;
13122;SDS011;6627;50.920;12.050;2023-04-25T05:53:17;10.53;;;7.07;;
13122;SDS011;6627;50.920;12.050;2023-04-25T05:55:46;10.43;;;7.17;;
13122;SDS011;6627;50.920;12.050;2023-04-25T05:58:13;11.03;;;6.83;;
13122;SDS011;6627;50.920;12.050;2023-04-25T06:00:41;10.03;;;6.30;;
13122;SDS011;6627;50.920;12.050;2023-04-25T06:03:08;9.27;;;6.87;;
13122;SDS011;6627;50.920;12.050;2023-04-25T06:05:35;9.30;;;6.63;;
13122;SDS011;6627;50.920;12.050;2023-04-25T06:08:03;10.03;;;6.90;;
13122;SDS011;6627;50.920;12.050;2023-04-25T06:10:30;11.50;;;6.30;;
13122;SDS011;6627;50.920;12.050;2023-04-25T06:12:59;11.17;;;6.73;;
13122;SDS011;6627;50.920;12.050;2023-04-25T06:15:26;9.17;;;5.87;;
13122;SDS011;6627;50.920;12.050;2023-04-25T06:17:53;14.57;;;6.50;;
13122;SDS011;6627;50.920;12.050;2023-04-25T06:20:21;13.00;;;6.10;;
13122;SDS011;6627;50.920;12.050;2023-04-25T06:22:49;9.27;;;6.10;;
13122;SDS011;6627;50.920;12.050;2023-04-25T06:25:17;9.20;;;5.80;;
13122;SDS011;6627;50.920;12.050;2023-04-25T06:27:45;7.10;;;5.40;;
13122;SDS011;6627;50.920;12.050;2023-04-25T06:30:14;7.43;;;4.83;;
13122;SDS011;6627;50.920;12.050;2023-04-25T06:32:44;10.20;;;5.57;;
13122;SDS011;6627;50.920;12.050;2023-04-25T06:35:12;8.20;;;5.10;;
13122;SDS011;6627;50.920;12.050;2023-04-25T06:37:39;7.77;;;4.80;;
13122;SDS011;6627;50.920;12.050;2023-04-25T06:40:07;7.93;;;4.33;;
13122;SDS011;6627;50.920;12.050;2023-04-25T06:42:36;6.73;;;4.40;;
13122;SDS011;6627;50.920;12.050;2023-04-25T06:45:03;6.03;;;4.20;;
13122;SDS011;6627;50.920;12.050;2023-04-25T06:47:33;7.90;;;4.50;;
13122;SDS011;6627;50.920;12.050;2023-04-25T06:50:00;7.70;;;4.17;;
13122;SDS011;6627;50.920;12.050;2023-04-25T06:52:27;9.00;;;5.20;;
13122;SDS011;6627;50.920;12.050;2023-04-25T06:54:57;9.90;;;4.67;;
13122;SDS011;6627;50.920;12.050;2023-04-25T06:57:24;6.70;;;4.90;;
13122;SDS011;6627;50.920;12.050;2023-04-25T06:59:52;7.80;;;4.40;;
13122;SDS011;6627;50.920;12.050;2023-04-25T07:02:19;5.80;;;4.33;;
13122;SDS011;6627;50.920;12.050;2023-04-25T07:04:48;9.03;;;5.00;;
13122;SDS011;6627;50.920;12.050;2023-04-25T07:07:15;6.77;;;4.57;;
13122;SDS011;6627;50.920;12.050;2023-04-25T07:09:43;7.53;;;4.50;;
13122;SDS011;6627;50.920;12.050;2023-04-25T07:12:10;10.47;;;4.60;;
13122;SDS011;6627;50.920;12.050;2023-04-25T07:14:38;7.60;;;4.70;;
13122;SDS011;6627;50.920;12.050;2023-04-25T07:17:05;6.77;;;4.40;;
13122;SDS011;6627;50.920;12.050;2023-04-25T07:19:33;7.23;;;4.80;;
13122;SDS011;6627;50.920;12.050;2023-04-25T07:22:02;6.40;;;4.47;;
13122;SDS011;6627;50.920;12.050;2023-04-25T07:24:29;8.03;;;5.07;;
13122;SDS011;6627;50.920;12.050;2023-04-25T07:26:56;7.27;;;5.00;;
13122;SDS011;6627;50.920;12.050;2023-04-25T07:29:24;6.77;;;4.60;;
13122;SDS011;6627;50.920;12.050;2023-04-25T07:31:51;9.67;;;5.37;;
13122;SDS011;6627;50.920;12.050;2023-04-25T07:34:19;7.27;;;4.50;;
13122;SDS011;6627;50.920;12.050;2023-04-25T07:36:46;6.93;;;4.73;;
13122;SDS011;6627;50.920;12.050;2023-04-25T07:39:15;6.13;;;4.23;;
13122;SDS011;6627;50.920;12.050;2023-04-25T07:41:42;6.67;;;4.50;;
13122;SDS011;6627;50.920;12.050;2023-04-25T07:44:09;6.03;;;4.27;;
13122;SDS011;6627;50.920;12.050;2023-04-25T07:46:36;6.30;;;3.73;;
13122;SDS011;6627;50.920;12.050;2023-04-25T07:49:03;7.93;;;4.10;;
13122;SDS011;6627;50.920;12.050;2023-04-25T07:51:31;9.03;;;4.20;;
13122;SDS011;6627;50.920;12.050;2023-04-25T07:53:58;7.23;;;4.13;;
13122;SDS011;6627;50.920;12.050;2023-04-25T07:56:27;4.80;;;3.87;;
13122;SDS011;6627;50.920;12.050;2023-04-25T07:58:54;6.63;;;4.10;;
13122;SDS011;6627;50.920;12.050;2023-04-25T08:01:21;5.67;;;4.00;;
13122;SDS011;6627;50.920;12.050;2023-04-25T08:03:48;6.23;;;3.90;;
13122;SDS011;6627;50.920;12.050;2023-04-25T08:06:15;8.77;;;4.60;;
13122;SDS011;6627;50.920;12.050;2023-04-25T08:08:43;5.67;;;3.93;;
13122;SDS011;6627;50.920;12.050;2023-04-25T08:11:10;6.90;;;3.83;;
13122;SDS011;6627;50.920;12.050;2023-04-25T08:13:38;8.27;;;4.40;;
13122;SDS011;6627;50.920;12.050;2023-04-25T08:16:06;6.23;;;4.87;;
13122;SDS011;6627;50.920;12.050;2023-04-25T08:18:33;5.60;;;4.17;;
13122;SDS011;6627;50.920;12.050;2023-04-25T08:21:00;7.30;;;4.10;;
13122;SDS011;6627;50.920;12.050;2023-04-25T08:23:27;6.13;;;4.73;;
13122;SDS011;6627;50.920;12.050;2023-04-25T08:25:55;6.93;;;4.77;;
13122;SDS011;6627;50.920;12.050;2023-04-25T08:28:22;5.77;;;4.63;;
13122;SDS011;6627;50.920;12.050;2023-04-25T08:30:51;7.97;;;4.77;;
13122;SDS011;6627;50.920;12.050;2023-04-25T08:33:18;5.67;;;4.87;;
13122;SDS011;6627;50.920;12.050;2023-04-25T08:35:46;6.60;;;4.80;;
13122;SDS011;6627;50.920;12.050;2023-04-25T08:38:14;6.93;;;5.20;;
13122;SDS011;6627;50.920;12.050;2023-04-25T08:40:41;7.00;;;4.87;;
13122;SDS011;6627;50.920;12.050;2023-04-25T08:43:11;6.40;;;4.60;;
13122;SDS011;6627;50.920;12.050;2023-04-25T08:45:41;9.10;;;5.17;;
13122;SDS011;6627;50.920;12.050;2023-04-25T08:48:11;11.97;;;6.80;;
13122;SDS011;6627;50.920;12.050;2023-04-25T08:50:50;9.10;;;5.37;;
13122;SDS011;6627;50.920;12.050;2023-04-25T08:53:21;5.50;;;4.50;;
13122;SDS011;6627;50.920;12.050;2023-04-25T08:55:53;6.17;;;4.20;;
13122;SDS011;6627;50.920;12.050;2023-04-25T08:58:22;7.43;;;4.30;;
13122;SDS011;6627;50.920;12.050;2023-04-25T09:00:50;5.90;;;4.13;;
13122;SDS011;6627;50.920;12.050;2023-04-25T09:03:19;5.57;;;4.33;;
13122;SDS011;6627;50.920;12.050;2023-04-25T09:05:47;7.50;;;4.30;;
13122;SDS011;6627;50.920;12.050;2023-04-25T09:08:15;6.17;;;4.20;;
13122;SDS011;6627;50.920;12.050;2023-04-25T09:10:42;6.30;;;4.30;;
13122;SDS011;6627;50.920;12.050;2023-04-25T09:13:09;4.43;;;4.03;;
13122;SDS011;6627;50.920;12.050;2023-04-25T09:15:46;6.63;;;4.27;;
13122;SDS011;6627;50.920;12.050;2023-04-25T09:18:22;4.83;;;3.97;;
13122;SDS011;6627;50.920;12.050;2023-04-25T09:20:54;7.60;;;4.70;;
13122;SDS011;6627;50.920;12.050;2023-04-25T09:23:30;7.13;;;4.20;;
13122;SDS011;6627;50.920;12.050;2023-04-25T09:26:07;6.80;;;4.47;;
13122;SDS011;6627;50.920;12.050;2023-04-25T09:28:35;6.53;;;4.27;;
13122;SDS011;6627;50.920;12.050;2023-04-25T09:31:03;7.37;;;4.10;;
13122;SDS011;6627;50.920;12.050;2023-04-25T09:33:32;7.93;;;4.10;;
13122;SDS011;6627;50.920;12.050;2023-04-25T09:36:02;6.33;;;4.00;;
13122;SDS011;6627;50.920;12.050;2023-04-25T09:38:32;4.67;;;3.93;;
13122;SDS011;6627;50.920;12.050;2023-04-25T09:41:07;4.47;;;4.00;;
13122;SDS011;6627;50.920;12.050;2023-04-25T09:43:35;4.77;;;3.60;;
13122;SDS011;6627;50.920;12.050;2023-04-25T09:46:04;4.90;;;3.33;;
13122;SDS011;6627;50.920;12.050;2023-04-25T09:48:37;7.33;;;3.80;;
13122;SDS011;6627;50.920;12.050;2023-04-25T09:51:05;4.57;;;3.90;;
13122;SDS011;6627;50.920;12.050;2023-04-25T09:53:36;7.37;;;3.87;;
13122;SDS011;6627;50.920;12.050;2023-04-25T09:56:07;6.70;;;3.80;;
13122;SDS011;6627;50.920;12.050;2023-04-25T09:58:37;6.07;;;3.90;;
13122;SDS011;6627;50.920;12.050;2023-04-25T10:01:06;4.13;;;3.73;;
13122;SDS011;6627;50.920;12.050;2023-04-25T10:03:35;5.90;;;4.37;;
13122;SDS011;6627;50.920;12.050;2023-04-25T10:06:08;5.13;;;4.13;;
13122;SDS011;6627;50.920;12.050;2023-04-25T10:08:39;9.63;;;5.60;;
13122;SDS011;6627;50.920;12.050;2023-04-25T10:11:08;5.93;;;4.93;;
13122;SDS011;6627;50.920;12.050;2023-04-25T10:13:37;9.10;;;5.00;;
13122;SDS011;6627;50.920;12.050;2023-04-25T10:16:04;7.00;;;5.43;;
13122;SDS011;6627;50.920;12.050;2023-04-25T10:18:32;8.10;;;5.03;;
13122;SDS011;6627;50.920;12.050;2023-04-25T10:21:01;8.93;;;4.87;;
13122;SDS011;6627;50.920;12.050;2023-04-25T10:23:32;5.57;;;4.50;;
13122;SDS011;6627;50.920;12.050;2023-04-25T10:26:01;5.57;;;4.27;;
13122;SDS011;6627;50.920;12.050;2023-04-25T10:28:29;5.17;;;4.47;;
13122;SDS011;6627;50.920;12.050;2023-04-25T10:31:23;8.30;;;6.73;;
13122;SDS011;6627;50.920;12.050;2023-04-25T10:33:51;5.80;;;4.43;;
13122;SDS011;6627;50.920;12.050;2023-04-25T10:36:20;7.57;;;4.97;;
13122;SDS011;6627;50.920;12.050;2023-04-25T10:38:50;6.70;;;4.40;;
13122;SDS011;6627;50.920;12.050;2023-04-25T10:41:18;7.83;;;5.20;;
13122;SDS011;6627;50.920;12.050;2023-04-25T10:43:49;8.53;;;5.00;;
13122;SDS011;6627;50.920;12.050;2023-04-25T10:46:26;7.50;;;4.70;;
13122;SDS011;6627;50.920;12.050;2023-04-25T10:48:56;7.77;;;5.40;;
13122;SDS011;6627;50.920;12.050;2023-04-25T10:51:27;4.80;;;3.90;;
13122;SDS011;6627;50.920;12.050;2023-04-25T10:53:58;5.30;;;4.77;;
13122;SDS011;6627;50.920;12.050;2023-04-25T10:56:29;6.07;;;4.90;;
13122;SDS011;6627;50.920;12.050;2023-04-25T10:59:04;5.03;;;4.50;;
13122;SDS011;6627;50.920;12.050;2023-04-25T11:01:37;10.23;;;5.87;;
13122;SDS011;6627;50.920;12.050;2023-04-25T11:04:06;8.40;;;5.53;;
13122;SDS011;6627;50.920;12.050;2023-04-25T11:06:53;7.83;;;4.10;;
13122;SDS011;6627;50.920;12.050;2023-04-25T11:09:32;5.00;;;4.10;;
13122;SDS011;6627;50.920;12.050;2023-04-25T11:12:01;6.57;;;3.93;;
13122;SDS011;6627;50.920;12.050;2023-04-25T11:14:29;7.53;;;3.83;;
13122;SDS011;6627;50.920;12.050;2023-04-25T11:16:56;4.50;;;3.43;;
13122;SDS011;6627;50.920;12.050;2023-04-25T11:19:25;11.30;;;5.50;;
13122;SDS011;6627;50.920;12.050;2023-04-25T11:21:56;14.27;;;6.47;;
13122;SDS011;6627;50.920;12.050;2023-04-25T11:24:25;11.10;;;4.70;;
13122;SDS011;6627;50.920;12.050;2023-04-25T11:26:53;7.80;;;4.53;;
13122;SDS011;6627;50.920;12.050;2023-04-25T11:29:21;5.67;;;4.80;;
13122;SDS011;6627;50.920;12.050;2023-04-25T11:31:49;7.93;;;4.60;;
13122;SDS011;6627;50.920;12.050;2023-04-25T11:34:17;8.47;;;4.40;;
13122;SDS011;6627;50.920;12.050;2023-04-25T11:36:44;6.97;;;4.83;;
13122;SDS011;6627;50.920;12.050;2023-04-25T11:39:13;5.80;;;4.53;;
13122;SDS011;6627;50.920;12.050;2023-04-25T11:41:41;6.67;;;5.00;;
13122;SDS011;6627;50.920;12.050;2023-04-25T11:44:08;9.33;;;5.07;;
13122;SDS011;6627;50.920;12.050;2023-04-25T11:46:36;8.80;;;4.93;;
13122;SDS011;6627;50.920;12.050;2023-04-25T11:49:04;7.17;;;4.83;;
13122;SDS011;6627;50.920;12.050;2023-04-25T11:51:37;9.53;;;5.00;;
13122;SDS011;6627;50.920;12.050;2023-04-25T11:54:05;9.63;;;4.60;;
13122;SDS011;6627;50.920;12.050;2023-04-25T11:56:34;6.87;;;4.10;;
13122;SDS011;6627;50.920;12.050;2023-04-25T11:59:02;7.03;;;4.30;;
13122;SDS011;6627;50.920;12.050;2023-04-25T12:01:32;8.70;;;5.03;;
13122;SDS011;6627;50.920;12.050;2023-04-25T12:04:11;9.87;;;5.23;;
13122;SDS011;6627;50.920;12.050;2023-04-25T12:06:41;7.43;;;4.93;;
13122;SDS011;6627;50.920;12.050;2023-04-25T12:09:12;8.13;;;5.40;;
13122;SDS011;6627;50.920;12.050;2023-04-25T12:11:42;8.97;;;4.57;;
13122;SDS011;6627;50.920;12.050;2023-04-25T12:14:11;7.53;;;4.10;;
13122;SDS011;6627;50.920;12.050;2023-04-25T12:16:42;9.73;;;3.97;;
13122;SDS011;6627;50.920;12.050;2023-04-25T12:19:13;8.57;;;3.13;;
13122;SDS011;6627;50.920;12.050;2023-04-25T12:21:40;10.73;;;3.90;;
13122;SDS011;6627;50.920;12.050;2023-04-25T12:24:11;9.80;;;3.70;;
13122;SDS011;6627;50.920;12.050;2023-04-25T12:26:51;10.60;;;3.63;;
13122;SDS011;6627;50.920;12.050;2023-04-25T12:29:24;8.10;;;3.10;;
13122;SDS011;6627;50.920;12.050;2023-04-25T12:31:55;9.90;;;3.63;;
13122;SDS011;6627;50.920;12.050;2023-04-25T12:34:23;11.07;;;3.57;;
13122;SDS011;6627;50.920;12.050;2023-04-25T12:36:51;9.20;;;3.33;;
13122;SDS011;6627;50.920;12.050;2023-04-25T12:39:19;10.17;;;3.07;;
13122;SDS011;6627;50.920;12.050;2023-04-25T12:41:51;9.17;;;3.40;;
13122;SDS011;6627;50.920;12.050;2023-04-25T12:44:19;18.30;;;10.60;;
13122;SDS011;6627;50.920;12.050;2023-04-25T12:46:46;19.17;;;10.93;;
13122;SDS011;6627;50.920;12.050;2023-04-25T12:49:15;15.27;;;5.53;;
13122;SDS011;6627;50.920;12.050;2023-04-25T12:51:42;9.20;;;3.50;;
13122;SDS011;6627;50.920;12.050;2023-04-25T12:54:10;13.23;;;6.30;;
13122;SDS011;6627;50.920;12.050;2023-04-25T12:56:37;6.90;;;3.00;;
13122;SDS011;6627;50.920;12.050;2023-04-25T12:59:06;10.07;;;3.70;;
13122;SDS011;6627;50.920;12.050;2023-04-25T13:01:34;8.97;;;3.40;;
13122;SDS011;6627;50.920;12.050;2023-04-25T13:04:02;13.07;;;4.30;;
13122;SDS011;6627;50.920;12.050;2023-04-25T13:06:29;8.73;;;2.90;;
13122;SDS011;6627;50.920;12.050;2023-04-25T13:08:57;8.83;;;3.43;;
13122;SDS011;6627;50.920;12.050;2023-04-25T13:11:25;22.77;;;5.07;;
13122;SDS011;6627;50.920;12.050;2023-04-25T13:13:52;11.13;;;3.50;;
13122;SDS011;6627;50.920;12.050;2023-04-25T13:16:20;11.87;;;3.73;;
13122;SDS011;6627;50.920;12.050;2023-04-25T13:18:48;10.57;;;3.30;;
13122;SDS011;6627;50.920;12.050;2023-04-25T13:21:15;17.67;;;3.03;;
13122;SDS011;6627;50.920;12.050;2023-04-25T13:23:43;9.57;;;2.70;;
13122;SDS011;6627;50.920;12.050;2023-04-25T13:26:12;13.00;;;3.57;;
13122;SDS011;6627;50.920;12.050;2023-04-25T13:28:39;6.17;;;2.93;;
13122;SDS011;6627;50.920;12.050;2023-04-25T13:31:07;8.13;;;2.80;;
13122;SDS011;6627;50.920;12.050;2023-04-25T13:33:35;10.27;;;4.20;;
13122;SDS011;6627;50.920;12.050;2023-04-25T13:36:04;13.37;;;4.10;;
13122;SDS011;6627;50.920;12.050;2023-04-25T13:38:33;10.67;;;3.17;;
13122;SDS011;6627;50.920;12.050;2023-04-25T13:41:00;11.90;;;3.30;;
13122;SDS011;6627;50.920;12.050;2023-04-25T13:43:27;8.27;;;2.20;;
13122;SDS011;6627;50.920;12.050;2023-04-25T13:45:55;15.47;;;3.10;;
13122;SDS011;6627;50.920;12.050;2023-04-25T13:48:23;10.80;;;2.67;;
13122;SDS011;6627;50.920;12.050;2023-04-25T13:50:52;7.60;;;2.13;;
13122;SDS011;6627;50.920;12.050;2023-04-25T13:53:19;10.00;;;2.47;;
13122;SDS011;6627;50.920;12.050;2023-04-25T13:55:46;7.13;;;2.40;;
13122;SDS011;6627;50.920;12.050;2023-04-25T13:58:14;11.50;;;3.27;;
13122;SDS011;6627;50.920;12.050;2023-04-25T14:00:41;6.43;;;2.27;;
13122;SDS011;6627;50.920;12.050;2023-04-25T14:03:11;12.40;;;2.47;;
13122;SDS011;6627;50.920;12.050;2023-04-25T14:05:39;7.23;;;2.50;;
13122;SDS011;6627;50.920;12.050;2023-04-25T14:08:08;7.53;;;2.50;;
13122;SDS011;6627;50.920;12.050;2023-04-25T14:10:36;7.67;;;2.20;;
13122;SDS011;6627;50.920;12.050;2023-04-25T14:13:04;11.23;;;2.63;;
13122;SDS011;6627;50.920;12.050;2023-04-25T14:15:32;10.10;;;2.60;;
13122;SDS011;6627;50.920;12.050;2023-04-25T14:18:01;7.83;;;3.00;;
13122;SDS011;6627;50.920;12.050;2023-04-25T14:20:29;8.00;;;2.70;;
13122;SDS011;6627;50.920;12.050;2023-04-25T14:22:57;7.37;;;3.03;;
13122;SDS011;6627;50.920;12.050;2023-04-25T14:25:26;8.03;;;3.23;;
13122;SDS011;6627;50.920;12.050;2023-04-25T14:27:53;8.07;;;2.67;;
13122;SDS011;6627;50.920;12.050;2023-04-25T14:30:21;9.47;;;3.20;;
13122;SDS011;6627;50.920;12.050;2023-04-25T14:32:48;9.67;;;2.60;;
13122;SDS011;6627;50.920;12.050;2023-04-25T14:35:16;8.47;;;2.60;;
13122;SDS011;6627;50.920;12.050;2023-04-25T14:37:44;7.53;;;2.97;;
13122;SDS011;6627;50.920;12.050;2023-04-25T14:40:12;6.17;;;2.43;;
13122;SDS011;6627;50.920;12.050;2023-04-25T14:42:43;9.10;;;2.57;;
13122;SDS011;6627;50.920;12.050;2023-04-25T14:45:10;8.07;;;2.57;;
13122;SDS011;6627;50.920;12.050;2023-04-25T14:47:38;13.10;;;2.70;;
13122;SDS011;6627;50.920;12.050;2023-04-25T14:50:06;7.20;;;2.60;;